createdAt,value
2018-09-08T00:00:39.660Z,78.50
2018-09-08T00:01:43.729Z,78.40
2018-09-08T00:02:47.792Z,79.20
2018-09-08T00:03:52.837Z,78.20
2018-09-08T00:04:57.013Z,78.10
2018-09-08T00:06:01.255Z,77.90
2018-09-08T00:07:10.733Z,77.80
2018-09-08T00:08:14.759Z,77.80
2018-09-08T00:09:19.214Z,77.80
2018-09-08T00:10:23.345Z,77.80
2018-09-08T00:11:27.477Z,77.70
2018-09-08T00:12:31.882Z,77.60
2018-09-08T00:13:35.981Z,77.70
2018-09-08T00:14:39.308Z,77.80
2018-09-08T00:15:49.115Z,77.70
2018-09-08T00:16:58.738Z,77.70
2018-09-08T00:18:08.420Z,77.60
2018-09-08T00:19:17.916Z,77.50
2018-09-08T00:20:27.268Z,77.40
2018-09-08T00:21:36.732Z,77.50
2018-09-08T00:22:46.344Z,77.60
2018-09-08T00:23:55.873Z,78.10
2018-09-08T00:25:05.315Z,77.70
2018-09-08T00:26:14.841Z,77.80
2018-09-08T00:27:26.143Z,77.60
2018-09-08T00:28:38.496Z,78.10
2018-09-08T00:29:47.784Z,78.20
2018-09-08T00:30:51.882Z,78.30
2018-09-08T00:31:57.515Z,78.50
2018-09-08T00:33:01.588Z,78.60
2018-09-08T00:34:05.891Z,78.70
2018-09-08T00:35:10.308Z,79.30
2018-09-08T00:36:14.514Z,78.70
2018-09-08T00:37:18.618Z,78.70
2018-09-08T00:38:22.962Z,78.70
2018-09-08T00:39:27.047Z,78.60
2018-09-08T00:40:31.434Z,78.50
2018-09-08T00:41:35.580Z,78.60
2018-09-08T00:42:39.710Z,78.70
2018-09-08T00:43:43.881Z,78.90
2018-09-08T00:44:48.224Z,79.00
2018-09-08T00:45:52.620Z,79.20
2018-09-08T00:46:56.694Z,79.20
2018-09-08T00:48:00.744Z,79.40
2018-09-08T00:49:05.109Z,79.60
2018-09-08T00:50:09.292Z,79.60
2018-09-08T00:51:13.360Z,79.70
2018-09-08T00:52:17.455Z,79.80
2018-09-08T00:53:21.582Z,80.00
2018-09-08T00:54:25.904Z,80.00
2018-09-08T00:55:30.383Z,80.00
2018-09-08T00:56:34.521Z,79.90
2018-09-08T00:57:38.576Z,79.90
2018-09-08T00:58:48.183Z,79.90
2018-09-08T00:59:52.740Z,79.80
2018-09-08T01:00:57.102Z,79.70
2018-09-08T01:02:01.363Z,79.80
2018-09-08T01:03:05.722Z,80.00
2018-09-08T01:04:09.871Z,80.90
2018-09-08T01:05:17.076Z,79.90
2018-09-08T01:06:21.232Z,79.80
2018-09-08T01:07:31.204Z,79.70
2018-09-08T01:08:35.573Z,79.70
2018-09-08T01:09:39.667Z,79.80
2018-09-08T01:10:43.756Z,79.80
2018-09-08T01:11:48.140Z,79.80
2018-09-08T01:12:52.263Z,79.80
2018-09-08T01:13:56.394Z,79.80
2018-09-08T01:15:01.390Z,79.70
2018-09-08T01:16:05.704Z,79.50
2018-09-08T01:17:09.884Z,79.50
2018-09-08T01:18:14.399Z,79.60
2018-09-08T01:19:18.514Z,79.70
2018-09-08T01:20:22.646Z,79.50
2018-09-08T01:21:26.840Z,79.40
2018-09-08T01:22:31.126Z,79.40
2018-09-08T01:23:35.389Z,79.00
2018-09-08T01:24:45.771Z,78.90
2018-09-08T01:25:49.881Z,78.70
2018-09-08T01:26:54.189Z,78.60
2018-09-08T01:27:58.416Z,78.60
2018-09-08T01:29:02.556Z,78.50
2018-09-08T01:30:06.991Z,78.30
2018-09-08T01:31:11.396Z,78.20
2018-09-08T01:32:15.488Z,78.30
2018-09-08T01:33:19.538Z,78.20
2018-09-08T01:34:23.556Z,78.20
2018-09-08T01:35:27.707Z,78.20
2018-09-08T01:36:31.818Z,78.20
2018-09-08T01:37:36.049Z,78.20
2018-09-08T01:38:40.160Z,78.20
2018-09-08T01:39:44.206Z,78.30
2018-09-08T01:40:48.600Z,78.50
2018-09-08T01:41:52.617Z,78.60
2018-09-08T01:42:56.745Z,78.60
2018-09-08T01:44:01.106Z,78.60
2018-09-08T01:45:05.444Z,78.70
2018-09-08T01:46:09.681Z,78.70
2018-09-08T01:47:14.319Z,78.60
2018-09-08T01:48:18.476Z,78.80
2018-09-08T01:49:22.535Z,78.60
2018-09-08T01:50:27.013Z,78.50
2018-09-08T01:51:31.082Z,78.50
2018-09-08T01:52:35.107Z,78.50
2018-09-08T01:53:39.223Z,78.60
2018-09-08T01:54:43.278Z,78.50
2018-09-08T01:55:47.619Z,79.20
2018-09-08T01:56:51.697Z,78.30
2018-09-08T01:57:55.777Z,78.30
2018-09-08T01:59:00.257Z,78.20
2018-09-08T02:00:05.229Z,78.30
2018-09-08T02:01:09.382Z,79.20
2018-09-08T02:02:13.768Z,78.40
2018-09-08T02:03:17.919Z,78.40
2018-09-08T02:04:21.966Z,78.30
2018-09-08T02:05:26.423Z,78.30
2018-09-08T02:06:30.717Z,78.30
2018-09-08T02:07:35.104Z,78.40
2018-09-08T02:08:39.434Z,78.40
2018-09-08T02:09:44.113Z,78.40
2018-09-08T02:10:48.388Z,78.50
2018-09-08T02:11:52.500Z,78.50
2018-09-08T02:12:56.936Z,78.50
2018-09-08T02:14:01.056Z,78.50
2018-09-08T02:15:05.328Z,78.50
2018-09-08T02:16:09.720Z,78.60
2018-09-08T02:17:13.845Z,78.70
2018-09-08T02:18:17.899Z,79.50
2018-09-08T02:19:21.994Z,78.80
2018-09-08T02:20:26.088Z,78.70
2018-09-08T02:21:30.612Z,78.70
2018-09-08T02:22:34.727Z,78.80
2018-09-08T02:23:39.251Z,78.80
2018-09-08T02:24:43.547Z,79.00
2018-09-08T02:25:47.599Z,78.90
2018-09-08T02:26:51.853Z,79.00
2018-09-08T02:27:55.896Z,78.80
2018-09-08T02:29:00.079Z,78.80
2018-09-08T02:30:05.216Z,78.40
2018-09-08T02:31:09.447Z,78.40
2018-09-08T02:32:13.593Z,78.40
2018-09-08T02:33:17.672Z,78.20
2018-09-08T02:34:21.972Z,78.00
2018-09-08T02:35:26.038Z,78.00
2018-09-08T02:36:30.058Z,78.00
2018-09-08T02:37:34.326Z,77.90
2018-09-08T02:38:38.465Z,78.00
2018-09-08T02:39:42.555Z,77.50
2018-09-08T02:40:46.987Z,78.10
2018-09-08T02:41:51.091Z,78.30
2018-09-08T02:42:55.402Z,78.30
2018-09-08T02:43:59.453Z,78.40
2018-09-08T02:45:03.610Z,78.40
2018-09-08T02:46:07.887Z,79.20
2018-09-08T02:47:12.049Z,78.50
2018-09-08T02:48:16.333Z,78.50
2018-09-08T02:49:20.478Z,78.70
2018-09-08T02:50:40.916Z,78.60
2018-09-08T02:51:43.912Z,78.70
2018-09-08T02:52:46.976Z,78.70
2018-09-08T02:53:50.368Z,78.70
2018-09-08T02:54:53.387Z,78.90
2018-09-08T02:55:56.410Z,79.00
2018-09-08T02:56:59.453Z,79.10
2018-09-08T02:58:02.636Z,79.20
2018-09-08T02:59:05.770Z,79.20
2018-09-08T03:00:08.802Z,79.20
2018-09-08T03:01:11.884Z,79.30
2018-09-08T03:02:14.962Z,79.50
2018-09-08T03:03:17.971Z,79.40
2018-09-08T03:04:21.025Z,79.40
2018-09-08T03:05:24.185Z,79.40
2018-09-08T03:06:27.216Z,79.40
2018-09-08T03:07:30.544Z,79.40
2018-09-08T03:08:33.553Z,79.40
2018-09-08T03:09:36.548Z,80.00
2018-09-08T03:10:39.852Z,79.40
2018-09-08T03:11:42.849Z,79.30
2018-09-08T03:12:45.897Z,79.30
2018-09-08T03:13:49.142Z,79.20
2018-09-08T03:14:52.247Z,79.30
2018-09-08T03:15:55.383Z,79.30
2018-09-08T03:16:58.463Z,79.20
2018-09-08T03:18:01.505Z,79.10
2018-09-08T03:19:04.533Z,79.50
2018-09-08T03:20:07.550Z,79.10
2018-09-08T03:21:10.588Z,79.10
2018-09-08T03:22:13.763Z,79.20
2018-09-08T03:23:16.833Z,79.30
2018-09-08T03:24:19.841Z,79.10
2018-09-08T03:25:22.912Z,79.10
2018-09-08T03:26:26.084Z,79.10
2018-09-08T03:27:29.145Z,79.10
2018-09-08T03:28:32.233Z,79.20
2018-09-08T03:29:35.610Z,79.20
2018-09-08T03:30:38.674Z,79.20
2018-09-08T03:31:41.809Z,79.20
2018-09-08T03:32:44.795Z,80.00
2018-09-08T03:33:47.787Z,79.10
2018-09-08T03:34:50.936Z,79.20
2018-09-08T03:35:54.019Z,79.20
2018-09-08T03:36:57.033Z,79.10
2018-09-08T03:38:00.069Z,79.10
2018-09-08T03:39:03.524Z,79.10
2018-09-08T03:40:06.726Z,79.10
2018-09-08T03:41:09.722Z,79.10
2018-09-08T03:42:12.742Z,79.10
2018-09-08T03:43:15.763Z,79.00
2018-09-08T03:44:18.793Z,79.10
2018-09-08T03:45:21.780Z,79.00
2018-09-08T03:46:25.190Z,79.00
2018-09-08T03:47:28.228Z,79.00
2018-09-08T03:48:31.593Z,79.00
2018-09-08T03:49:34.595Z,79.10
2018-09-08T03:50:37.630Z,79.10
2018-09-08T03:51:40.633Z,79.10
2018-09-08T03:52:43.626Z,79.80
2018-09-08T03:53:46.674Z,79.00
2018-09-08T03:54:49.708Z,79.10
2018-09-08T03:55:52.780Z,79.20
2018-09-08T03:56:55.754Z,79.30
2018-09-08T03:57:58.781Z,79.40
2018-09-08T03:59:01.845Z,79.40
2018-09-08T04:00:04.805Z,79.40
2018-09-08T04:01:07.874Z,79.50
2018-09-08T04:02:10.876Z,79.50
2018-09-08T04:03:14.952Z,79.50
2018-09-08T04:04:19.188Z,79.50
2018-09-08T04:05:23.578Z,79.40
2018-09-08T04:06:27.743Z,79.40
2018-09-08T04:07:31.807Z,79.40
2018-09-08T04:08:35.898Z,79.30
2018-09-08T04:09:40.100Z,79.30
2018-09-08T04:10:44.162Z,79.20
2018-09-08T04:11:48.503Z,79.30
2018-09-08T04:12:53.100Z,79.20
2018-09-08T04:13:57.217Z,79.10
2018-09-08T04:15:01.542Z,79.10
2018-09-08T04:16:05.722Z,79.10
2018-09-08T04:17:09.806Z,79.20
2018-09-08T04:18:14.397Z,79.20
2018-09-08T04:19:18.937Z,79.10
2018-09-08T04:20:23.041Z,80.00
2018-09-08T04:21:27.070Z,79.20
2018-09-08T04:22:34.247Z,79.20
2018-09-08T04:23:38.333Z,79.10
2018-09-08T04:24:42.400Z,79.00
2018-09-08T04:25:46.734Z,79.00
2018-09-08T04:26:51.360Z,78.90
2018-09-08T04:27:55.460Z,79.00
2018-09-08T04:28:59.543Z,79.00
2018-09-08T04:30:03.727Z,79.00
2018-09-08T04:31:07.959Z,78.90
2018-09-08T04:32:12.021Z,78.80
2018-09-08T04:33:16.061Z,79.00
2018-09-08T04:34:20.165Z,79.00
2018-09-08T04:35:24.592Z,78.90
2018-09-08T04:36:28.686Z,79.00
2018-09-08T04:37:32.845Z,79.00
2018-09-08T04:38:36.956Z,79.70
2018-09-08T04:39:41.232Z,79.00
2018-09-08T04:40:45.860Z,79.00
2018-09-08T04:41:49.948Z,79.00
2018-09-08T04:42:54.032Z,79.10
2018-09-08T04:43:58.097Z,79.10
2018-09-08T04:45:02.202Z,79.10
2018-09-08T04:46:06.738Z,79.20
2018-09-08T04:47:10.829Z,79.20
2018-09-08T04:48:14.956Z,79.20
2018-09-08T04:49:19.204Z,79.30
2018-09-08T04:50:23.538Z,79.40
2018-09-08T04:51:27.636Z,80.10
2018-09-08T04:52:31.806Z,79.40
2018-09-08T04:53:35.942Z,79.50
2018-09-08T04:54:40.558Z,79.50
2018-09-08T04:55:44.730Z,80.20
2018-09-08T04:56:48.825Z,79.50
2018-09-08T04:57:53.320Z,79.50
2018-09-08T04:58:57.627Z,79.60
2018-09-08T05:00:02.082Z,79.50
2018-09-08T05:01:06.476Z,79.60
2018-09-08T05:02:10.919Z,79.50
2018-09-08T05:03:14.997Z,79.70
2018-09-08T05:04:19.290Z,79.60
2018-09-08T05:05:23.362Z,79.50
2018-09-08T05:06:27.422Z,79.40
2018-09-08T05:07:31.500Z,79.40
2018-09-08T05:08:35.550Z,79.40
2018-09-08T05:09:39.647Z,79.40
2018-09-08T05:10:44.026Z,79.40
2018-09-08T05:11:48.092Z,79.40
2018-09-08T05:12:52.169Z,79.30
2018-09-08T05:13:56.318Z,79.50
2018-09-08T05:15:00.614Z,79.50
2018-09-08T05:16:04.742Z,79.50
2018-09-08T05:17:08.849Z,79.40
2018-09-08T05:18:12.940Z,79.50
2018-09-08T05:19:17.108Z,79.60
2018-09-08T05:20:21.499Z,79.50
2018-09-08T05:21:25.893Z,79.50
2018-09-08T05:22:30.014Z,79.50
2018-09-08T05:23:34.835Z,79.50
2018-09-08T05:24:38.893Z,79.50
2018-09-08T05:25:42.951Z,79.60
2018-09-08T05:26:47.212Z,79.70
2018-09-08T05:27:51.302Z,79.70
2018-09-08T05:28:55.401Z,79.70
2018-09-08T05:29:59.516Z,79.80
2018-09-08T05:31:04.039Z,79.80
2018-09-08T05:32:08.413Z,79.80
2018-09-08T05:33:12.488Z,79.80
2018-09-08T05:34:16.601Z,79.80
2018-09-08T05:35:20.727Z,79.80
2018-09-08T05:36:25.216Z,79.90
2018-09-08T05:37:29.478Z,80.00
2018-09-08T05:38:33.560Z,80.00
2018-09-08T05:39:37.699Z,80.10
2018-09-08T05:40:42.160Z,80.10
2018-09-08T05:41:46.277Z,80.10
2018-09-08T05:42:50.405Z,80.10
2018-09-08T05:43:54.424Z,80.80
2018-09-08T05:44:58.833Z,80.10
2018-09-08T05:46:02.913Z,80.30
2018-09-08T05:47:07.060Z,80.40
2018-09-08T05:48:11.245Z,80.50
2018-09-08T05:49:16.026Z,80.50
2018-09-08T05:50:20.553Z,80.70
2018-09-08T05:51:25.102Z,80.70
2018-09-08T05:52:29.277Z,80.80
2018-09-08T05:53:33.708Z,80.90
2018-09-08T05:54:37.973Z,81.00
2018-09-08T05:55:42.643Z,81.00
2018-09-08T05:56:46.818Z,81.00
2018-09-08T05:57:50.922Z,80.90
2018-09-08T05:58:55.093Z,80.90
2018-09-08T05:59:59.308Z,80.90
2018-09-08T06:01:03.386Z,80.90
2018-09-08T06:02:07.650Z,81.00
2018-09-08T06:03:11.823Z,81.10
2018-09-08T06:04:16.102Z,81.10
2018-09-08T06:05:20.151Z,81.20
2018-09-08T06:06:24.245Z,81.20
2018-09-08T06:07:28.606Z,81.40
2018-09-08T06:08:32.700Z,81.40
2018-09-08T06:09:36.776Z,81.40
2018-09-08T06:10:41.059Z,81.40
2018-09-08T06:11:45.238Z,81.30
2018-09-08T06:12:49.335Z,81.40
2018-09-08T06:13:53.458Z,81.40
2018-09-08T06:14:57.538Z,81.40
2018-09-08T06:16:01.665Z,81.50
2018-09-08T06:17:05.774Z,81.50
2018-09-08T06:18:10.317Z,81.60
2018-09-08T06:19:14.335Z,81.60
2018-09-08T06:20:19.345Z,81.60
2018-09-08T06:21:23.528Z,81.50
2018-09-08T06:22:28.064Z,81.60
2018-09-08T06:23:32.268Z,80.80
2018-09-08T06:24:36.463Z,81.40
2018-09-08T06:25:40.591Z,81.40
2018-09-08T06:26:44.736Z,81.40
2018-09-08T06:27:49.028Z,81.40
2018-09-08T06:28:53.168Z,81.30
2018-09-08T06:29:57.450Z,81.30
2018-09-08T06:31:01.680Z,81.30
2018-09-08T06:32:05.781Z,81.30
2018-09-08T06:33:09.890Z,81.10
2018-09-08T06:34:14.116Z,81.00
2018-09-08T06:35:18.666Z,81.20
2018-09-08T06:36:22.594Z,81.00
2018-09-08T06:37:26.646Z,80.90
2018-09-08T06:38:30.756Z,80.90
2018-09-08T06:39:34.981Z,80.80
2018-09-08T06:40:39.036Z,80.60
2018-09-08T06:41:43.518Z,80.60
2018-09-08T06:42:47.616Z,80.50
2018-09-08T06:43:51.646Z,80.40
2018-09-08T06:44:55.965Z,80.10
2018-09-08T06:46:00.144Z,80.00
2018-09-08T06:47:04.255Z,79.70
2018-09-08T06:48:08.363Z,79.50
2018-09-08T06:49:12.430Z,79.50
2018-09-08T06:50:16.526Z,79.30
2018-09-08T06:51:20.664Z,79.10
2018-09-08T06:52:24.796Z,79.80
2018-09-08T06:53:29.155Z,78.80
2018-09-08T06:54:33.233Z,78.60
2018-09-08T06:55:37.374Z,78.40
2018-09-08T06:56:41.559Z,78.20
2018-09-08T06:57:45.997Z,78.10
2018-09-08T06:58:50.130Z,77.80
2018-09-08T06:59:54.253Z,77.70
2018-09-08T07:00:58.334Z,77.50
2018-09-08T07:02:02.799Z,77.40
2018-09-08T07:03:06.877Z,77.30
2018-09-08T07:04:10.941Z,77.30
2018-09-08T07:05:15.085Z,77.00
2018-09-08T07:06:19.658Z,77.10
2018-09-08T07:07:23.781Z,76.80
2018-09-08T07:08:27.843Z,76.90
2018-09-08T07:09:32.164Z,76.80
2018-09-08T07:10:36.276Z,76.60
2018-09-08T07:11:40.387Z,76.40
2018-09-08T07:12:44.488Z,76.50
2018-09-08T07:13:48.615Z,76.20
2018-09-08T07:14:52.635Z,76.00
2018-09-08T07:15:56.767Z,75.80
2018-09-08T07:17:00.940Z,75.60
2018-09-08T07:18:05.174Z,75.60
2018-09-08T07:19:09.634Z,75.60
2018-09-08T07:20:13.709Z,75.40
2018-09-08T07:21:17.787Z,75.30
2018-09-08T07:22:22.120Z,75.10
2018-09-08T07:23:26.231Z,75.00
2018-09-08T07:24:30.367Z,74.80
2018-09-08T07:25:34.640Z,74.50
2018-09-08T07:26:38.798Z,74.20
2018-09-08T07:27:43.331Z,74.00
2018-09-08T07:28:47.379Z,73.50
2018-09-08T07:29:51.506Z,73.40
2018-09-08T07:30:55.666Z,73.80
2018-09-08T07:32:00.020Z,73.70
2018-09-08T07:33:04.418Z,73.80
2018-09-08T07:34:08.632Z,73.90
2018-09-08T07:35:12.842Z,73.90
2018-09-08T07:36:16.924Z,73.80
2018-09-08T07:37:21.199Z,73.60
2018-09-08T07:38:25.917Z,73.60
2018-09-08T07:39:30.062Z,73.60
2018-09-08T07:40:34.273Z,74.20
2018-09-08T07:41:38.400Z,73.30
2018-09-08T07:42:42.780Z,73.30
2018-09-08T07:43:47.105Z,72.90
2018-09-08T07:44:51.233Z,72.60
2018-09-08T07:45:55.354Z,72.30
2018-09-08T07:46:59.514Z,72.10
2018-09-08T07:48:04.093Z,71.70
2018-09-08T07:49:08.188Z,71.60
2018-09-08T07:50:12.396Z,72.10
2018-09-08T07:51:16.676Z,71.30
2018-09-08T07:52:21.144Z,71.00
2018-09-08T07:53:25.528Z,71.40
2018-09-08T07:54:30.190Z,70.60
2018-09-08T07:55:34.374Z,70.20
2018-09-08T07:56:38.583Z,70.00
2018-09-08T07:57:43.080Z,69.70
2018-09-08T07:58:47.111Z,69.60
2018-09-08T07:59:51.302Z,69.50
2018-09-08T08:00:55.343Z,69.40
2018-09-08T08:01:59.509Z,69.20
2018-09-08T08:03:03.726Z,69.30
2018-09-08T08:04:07.998Z,69.50
2018-09-08T08:05:12.169Z,69.50
2018-09-08T08:06:16.255Z,69.70
2018-09-08T08:07:20.669Z,69.70
2018-09-08T08:08:24.895Z,69.80
2018-09-08T08:09:29.120Z,69.80
2018-09-08T08:10:33.635Z,70.00
2018-09-08T08:11:37.828Z,70.30
2018-09-08T08:12:41.978Z,70.20
2018-09-08T08:13:46.224Z,69.90
2018-09-08T08:14:50.598Z,70.00
2018-09-08T08:15:54.842Z,69.80
2018-09-08T08:16:59.018Z,70.20
2018-09-08T08:18:03.185Z,70.30
2018-09-08T08:19:07.900Z,70.40
2018-09-08T08:20:12.016Z,70.80
2018-09-08T08:21:16.284Z,70.60
2018-09-08T08:22:20.366Z,70.20
2018-09-08T08:23:24.850Z,69.40
2018-09-08T08:24:29.078Z,69.00
2018-09-08T08:25:33.202Z,68.90
2018-09-08T08:26:37.444Z,68.60
2018-09-08T08:27:41.563Z,68.40
2018-09-08T08:28:45.667Z,67.90
2018-09-08T08:29:49.835Z,67.80
2018-09-08T08:30:54.272Z,67.30
2018-09-08T08:31:58.453Z,66.90
2018-09-08T08:33:02.660Z,66.70
2018-09-08T08:34:06.912Z,66.90
2018-09-08T08:35:11.167Z,67.70
2018-09-08T08:36:15.349Z,66.60
2018-09-08T08:37:19.579Z,66.40
2018-09-08T08:38:23.574Z,66.50
2018-09-08T08:39:27.885Z,66.40
2018-09-08T08:40:33.549Z,66.30
2018-09-08T08:41:40.012Z,66.30
2018-09-08T08:42:46.416Z,65.90
2018-09-08T08:43:52.576Z,65.80
2018-09-08T08:44:59.350Z,65.80
2018-09-08T08:46:05.883Z,65.60
2018-09-08T08:47:12.526Z,65.50
2018-09-08T08:48:19.422Z,65.40
2018-09-08T08:49:24.725Z,64.90
2018-09-08T08:50:41.788Z,64.40
2018-09-08T08:51:58.157Z,64.40
2018-09-08T08:53:14.578Z,64.30
2018-09-08T08:54:30.142Z,64.50
2018-09-08T08:55:36.666Z,65.50
2018-09-08T08:56:42.944Z,64.80
2018-09-08T08:57:48.807Z,64.80
2018-09-08T08:58:55.484Z,64.10
2018-09-08T09:00:00.612Z,64.00
2018-09-08T09:01:04.746Z,63.90
2018-09-08T09:02:08.798Z,63.90
2018-09-08T09:03:13.035Z,63.70
2018-09-08T09:04:17.131Z,64.20
2018-09-08T09:05:21.268Z,63.50
2018-09-08T09:06:25.437Z,63.60
2018-09-08T09:07:29.536Z,63.30
2018-09-08T09:08:34.358Z,63.60
2018-09-08T09:09:37.988Z,62.80
2018-09-08T09:10:42.166Z,62.10
2018-09-08T09:11:46.956Z,61.90
2018-09-08T09:12:50.721Z,62.00
2018-09-08T09:13:54.829Z,61.80
2018-09-08T09:14:58.931Z,61.70
2018-09-08T09:16:03.015Z,61.20
2018-09-08T09:17:07.149Z,61.00
2018-09-08T09:18:16.245Z,61.00
2018-09-08T09:19:37.097Z,60.80
2018-09-08T09:20:52.924Z,60.50
2018-09-08T09:22:08.545Z,60.00
2018-09-08T09:23:24.116Z,59.30
2018-09-08T09:25:07.549Z,58.40
2018-09-08T09:26:11.751Z,58.10
2018-09-08T09:27:15.987Z,58.00
2018-09-08T09:28:20.117Z,57.30
2018-09-08T09:29:24.280Z,56.70
2018-09-08T09:30:28.602Z,56.20
2018-09-08T09:31:32.785Z,55.80
2018-09-08T09:32:37.203Z,55.60
2018-09-08T09:33:41.598Z,55.50
2018-09-08T09:34:45.806Z,55.30
2018-09-08T09:35:50.239Z,54.90
2018-09-08T09:36:54.268Z,54.30
2018-09-08T09:37:58.465Z,53.80
2018-09-08T09:39:03.387Z,53.40
2018-09-08T09:40:08.868Z,53.30
2018-09-08T09:41:13.414Z,53.10
2018-09-08T09:42:17.579Z,52.90
2018-09-08T09:43:22.136Z,52.40
2018-09-08T09:44:26.314Z,51.70
2018-09-08T09:45:30.557Z,51.40
2018-09-08T09:46:34.745Z,51.00
2018-09-08T09:47:39.112Z,50.90
2018-09-08T09:48:43.418Z,50.90
2018-09-08T09:49:48.340Z,51.10
2018-09-08T09:50:52.475Z,51.20
2018-09-08T09:51:56.622Z,51.50
2018-09-08T09:53:00.909Z,51.60
2018-09-08T09:54:05.036Z,51.40
2018-09-08T09:55:09.416Z,51.30
2018-09-08T09:56:13.625Z,51.20
2018-09-08T09:57:17.680Z,51.00
2018-09-08T09:58:22.014Z,50.80
2018-09-08T09:59:26.128Z,50.70
2018-09-08T10:00:35.699Z,50.30
2018-09-08T10:02:45.402Z,49.80
2018-09-08T10:03:49.691Z,49.80
2018-09-08T10:04:53.762Z,50.70
2018-09-08T10:05:58.401Z,49.30
2018-09-08T10:07:02.561Z,48.80
2018-09-08T10:08:06.839Z,48.70
2018-09-08T10:09:11.175Z,48.30
2018-09-08T10:10:27.264Z,48.00
2018-09-08T10:11:31.491Z,47.50
2018-09-08T10:12:35.632Z,47.30
2018-09-08T10:13:39.724Z,46.70
2018-09-08T10:14:43.847Z,46.20
2018-09-08T10:15:48.012Z,46.10
2018-09-08T10:16:52.098Z,45.60
2018-09-08T10:17:56.320Z,45.10
2018-09-08T10:19:00.412Z,44.60
2018-09-08T10:20:05.711Z,44.20
2018-09-08T10:21:10.366Z,44.10
2018-09-08T10:22:14.774Z,43.80
2018-09-08T10:23:18.990Z,43.60
2018-09-08T10:24:23.222Z,43.50
2018-09-08T10:25:27.372Z,43.40
2018-09-08T10:26:34.803Z,43.00
2018-09-08T10:27:39.006Z,43.40
2018-09-08T10:28:43.308Z,42.50
2018-09-08T10:29:51.025Z,42.20
2018-09-08T10:30:54.711Z,41.90
2018-09-08T10:31:58.897Z,41.70
2018-09-08T10:33:02.974Z,41.90
2018-09-08T10:34:07.117Z,40.90
2018-09-08T10:35:11.154Z,40.30
2018-09-08T10:36:15.369Z,40.00
2018-09-08T10:37:19.708Z,39.70
2018-09-08T10:38:23.901Z,39.50
2018-09-08T10:39:31.232Z,39.50
2018-09-08T10:40:35.426Z,39.50
2018-09-08T10:41:39.629Z,39.60
2018-09-08T10:42:43.938Z,39.30
2018-09-08T10:43:47.967Z,39.30
2018-09-08T10:44:52.098Z,39.50
2018-09-08T10:45:56.246Z,39.30
2018-09-08T10:47:00.825Z,39.10
2018-09-08T10:48:05.027Z,39.70
2018-09-08T10:49:09.687Z,38.90
2018-09-08T10:50:13.883Z,38.70
2018-09-08T10:52:27.208Z,38.50
2018-09-08T10:53:31.635Z,38.90
2018-09-08T10:54:35.739Z,38.60
2018-09-08T10:55:39.893Z,38.20
2018-09-08T10:56:44.043Z,37.70
2018-09-08T10:57:48.163Z,37.50
2018-09-08T10:58:52.491Z,37.20
2018-09-08T10:59:57.284Z,36.70
2018-09-08T11:01:01.515Z,36.40
2018-09-08T11:02:05.961Z,36.20
2018-09-08T11:03:10.127Z,35.90
2018-09-08T11:04:14.922Z,36.20
2018-09-08T11:05:19.226Z,35.70
2018-09-08T11:06:23.883Z,35.60
2018-09-08T11:07:28.329Z,35.30
2018-09-08T11:08:32.538Z,34.90
2018-09-08T11:09:36.913Z,34.40
2018-09-08T11:10:40.983Z,34.20
2018-09-08T11:11:45.152Z,34.00
2018-09-08T11:12:49.259Z,33.50
2018-09-08T11:13:53.866Z,33.50
2018-09-08T11:14:58.004Z,33.40
2018-09-08T11:16:02.180Z,33.20
2018-09-08T11:17:06.718Z,33.00
2018-09-08T11:18:10.924Z,33.00
2018-09-08T11:19:15.010Z,33.00
2018-09-08T11:20:19.120Z,33.20
2018-09-08T11:21:23.830Z,33.30
2018-09-08T11:22:28.058Z,33.40
2018-09-08T11:23:32.226Z,33.50
2018-09-08T11:24:36.656Z,33.60
2018-09-08T11:25:40.777Z,33.60
2018-09-08T11:26:45.000Z,33.80
2018-09-08T11:27:49.080Z,34.00
2018-09-08T11:28:53.256Z,34.20
2018-09-08T11:29:57.427Z,34.50
2018-09-08T11:31:01.747Z,34.50
2018-09-08T11:32:05.929Z,34.80
2018-09-08T11:33:09.997Z,35.00
2018-09-08T11:34:14.191Z,35.20
2018-09-08T11:35:18.332Z,35.40
2018-09-08T11:36:22.869Z,35.70
2018-09-08T11:37:27.050Z,35.70
2018-09-08T11:38:31.209Z,35.70
2018-09-08T11:39:35.525Z,35.90
2018-09-08T11:40:39.627Z,36.10
2018-09-08T11:41:44.250Z,36.40
2018-09-08T11:42:48.328Z,36.50
2018-09-08T11:43:52.427Z,36.70
2018-09-08T11:44:56.895Z,37.70
2018-09-08T11:46:01.000Z,37.30
2018-09-08T11:47:05.267Z,37.30
2018-09-08T11:48:09.402Z,37.60
2018-09-08T11:49:13.673Z,37.80
2018-09-08T11:50:17.796Z,38.00
2018-09-08T11:51:21.975Z,38.10
2018-09-08T11:52:26.114Z,38.30
2018-09-08T11:53:30.409Z,38.70
2018-09-08T11:54:34.664Z,39.00
2018-09-08T11:55:38.953Z,39.00
2018-09-08T11:56:43.587Z,39.20
2018-09-08T11:57:47.952Z,39.40
2018-09-08T11:58:52.363Z,39.50
2018-09-08T11:59:56.433Z,39.80
2018-09-08T12:01:00.656Z,40.00
2018-09-08T12:02:04.886Z,40.10
2018-09-08T12:03:09.263Z,40.50
2018-09-08T12:04:13.330Z,40.80
2018-09-08T12:05:17.684Z,40.80
2018-09-08T12:06:21.813Z,41.10
2018-09-08T12:07:26.112Z,41.50
2018-09-08T12:08:30.255Z,41.60
2018-09-08T12:09:34.421Z,41.70
2018-09-08T12:10:38.626Z,42.10
2018-09-08T12:11:42.787Z,42.60
2018-09-08T12:12:46.922Z,42.90
2018-09-08T12:13:51.096Z,43.20
2018-09-08T12:14:55.205Z,43.50
2018-09-08T12:15:59.384Z,43.60
2018-09-08T12:17:03.775Z,43.40
2018-09-08T12:18:07.907Z,43.00
2018-09-08T12:19:12.124Z,42.50
2018-09-08T12:20:16.147Z,41.90
2018-09-08T12:21:20.563Z,41.70
2018-09-08T12:22:24.707Z,41.00
2018-09-08T12:23:28.830Z,40.80
2018-09-08T12:24:32.957Z,40.30
2018-09-08T12:25:37.218Z,39.80
2018-09-08T12:26:41.329Z,39.60
2018-09-08T12:27:45.470Z,39.20
2018-09-08T12:28:49.673Z,39.10
2018-09-08T12:29:54.265Z,39.00
2018-09-08T12:30:58.514Z,38.80
2018-09-08T12:32:02.478Z,38.90
2018-09-08T12:33:08.781Z,38.70
2018-09-08T12:34:12.903Z,38.50
2018-09-08T12:35:17.324Z,38.70
2018-09-08T12:36:21.813Z,38.80
2018-09-08T12:37:25.962Z,39.00
2018-09-08T12:38:30.524Z,39.20
2018-09-08T12:39:34.799Z,39.00
2018-09-08T12:40:39.246Z,39.00
2018-09-08T12:41:43.337Z,39.00
2018-09-08T12:42:47.429Z,39.10
2018-09-08T12:43:51.636Z,39.20
2018-09-08T12:44:55.751Z,39.20
2018-09-08T12:45:59.953Z,39.20
2018-09-08T12:47:04.424Z,39.00
2018-09-08T12:48:08.478Z,39.10
2018-09-08T12:49:12.680Z,39.30
2018-09-08T12:50:16.822Z,39.60
2018-09-08T12:51:21.283Z,39.90
2018-09-08T12:52:25.386Z,40.40
2018-09-08T12:53:29.555Z,40.60
2018-09-08T12:54:33.592Z,41.10
2018-09-08T12:55:38.112Z,40.10
2018-09-08T12:56:42.193Z,39.50
2018-09-08T12:57:46.382Z,38.50
2018-09-08T12:58:50.433Z,38.50
2018-09-08T12:59:54.627Z,38.20
2018-09-08T13:00:58.760Z,38.00
2018-09-08T13:02:02.856Z,37.80
2018-09-08T13:03:07.245Z,37.40
2018-09-08T13:04:11.778Z,37.10
2018-09-08T13:05:15.937Z,37.00
2018-09-08T13:06:20.089Z,36.90
2018-09-08T13:07:24.321Z,36.90
2018-09-08T13:08:28.553Z,36.50
2018-09-08T13:09:33.310Z,36.70
2018-09-08T13:10:37.512Z,36.80
2018-09-08T13:11:43.036Z,36.70
2018-09-08T13:12:47.292Z,36.50
2018-09-08T13:13:51.533Z,35.90
2018-09-08T13:14:55.663Z,36.50
2018-09-08T13:16:00.173Z,36.60
2018-09-08T13:17:04.343Z,36.70
2018-09-08T13:18:08.535Z,36.70
2018-09-08T13:19:12.663Z,36.80
2018-09-08T13:20:16.758Z,36.90
2018-09-08T13:21:20.837Z,37.00
2018-09-08T13:22:25.019Z,37.10
2018-09-08T13:23:29.137Z,37.00
2018-09-08T13:24:33.207Z,36.90
2018-09-08T13:25:37.659Z,37.20
2018-09-08T13:26:41.927Z,37.20
2018-09-08T13:27:46.240Z,37.40
2018-09-08T13:28:50.626Z,37.70
2018-09-08T13:29:54.651Z,37.60
2018-09-08T13:30:58.792Z,37.50
2018-09-08T13:32:02.801Z,37.80
2018-09-08T13:33:07.542Z,38.30
2018-09-08T13:34:11.626Z,38.00
2018-09-08T13:35:15.790Z,38.10
2018-09-08T13:36:19.928Z,38.20
2018-09-08T13:37:24.042Z,38.40
2018-09-08T13:38:28.353Z,38.60
2018-09-08T13:39:32.521Z,39.50
2018-09-08T13:40:36.573Z,39.20
2018-09-08T13:41:40.662Z,39.70
2018-09-08T13:42:44.998Z,40.20
2018-09-08T13:43:49.180Z,40.40
2018-09-08T13:44:53.413Z,40.50
2018-09-08T13:45:57.425Z,40.60
2018-09-08T13:47:01.518Z,40.50
2018-09-08T13:48:05.688Z,40.50
2018-09-08T13:49:10.009Z,40.50
2018-09-08T13:50:14.149Z,40.20
2018-09-08T13:51:18.274Z,40.00
2018-09-08T13:52:22.612Z,39.70
2018-09-08T13:53:26.791Z,39.70